createdAt,value
2018-12-17T06:29:35.410Z,88.87
2018-12-17T06:30:48.950Z,88.86
2018-12-17T06:34:19.002Z,88.9
2018-12-17T06:37:49.203Z,88.89
2018-12-17T06:41:19.275Z,88.93
2018-12-17T06:44:49.275Z,88.97
2018-12-17T06:48:19.387Z,89.03
2018-12-17T06:51:49.509Z,89.07
2018-12-17T06:55:19.611Z,89.07
2018-12-17T06:58:49.712Z,89.08
2018-12-17T07:02:19.924Z,89.11
2018-12-17T07:05:50.036Z,89.16
2018-12-17T07:09:19.993Z,89.18
2018-12-17T07:12:50.379Z,89.23
2018-12-17T07:16:20.321Z,89.25
2018-12-17T07:19:50.363Z,89.24
2018-12-17T07:23:20.374Z,89.25
2018-12-17T07:26:50.396Z,89.26
2018-12-17T07:30:20.438Z,89.19
2018-12-17T07:33:50.499Z,89.1
2018-12-17T07:37:20.481Z,89.23
2018-12-17T07:40:50.545Z,89.21
2018-12-17T07:44:20.524Z,89.15
2018-12-17T07:47:50.742Z,89.31
2018-12-17T07:51:20.718Z,89.35
2018-12-17T07:54:50.820Z,89.38
2018-12-17T07:58:20.931Z,89.43
2018-12-17T08:00:21.482Z,89.45
2018-12-17T08:03:51.783Z,89.48
2018-12-17T08:07:21.825Z,89.51
2018-12-17T08:10:51.897Z,89.52
2018-12-17T08:14:22.268Z,89.52
2018-12-17T08:18:24.461Z,89.54
2018-12-17T08:21:54.518Z,89.62
2018-12-17T08:25:24.564Z,89.64
2018-12-17T08:28:54.607Z,89.68
2018-12-17T08:32:24.547Z,89.71
2018-12-17T08:35:54.629Z,89.69
2018-12-17T08:39:24.721Z,89.65
2018-12-17T08:42:54.792Z,89.7
2018-12-17T08:46:24.848Z,89.67
2018-12-17T08:49:55.096Z,89.59
2018-12-17T08:53:25.047Z,89.6
2018-12-17T08:56:55.179Z,89.49
2018-12-17T09:00:25.179Z,89.41
2018-12-17T09:03:55.223Z,89.28
2018-12-17T09:07:25.344Z,89.3
2018-12-17T09:10:55.366Z,89.26
2018-12-17T09:14:25.661Z,89.15
2018-12-17T09:17:55.762Z,89.13
2018-12-17T09:21:25.921Z,89.17
2018-12-17T09:24:56.083Z,89.2
2018-12-17T09:28:26.095Z,89.29
2018-12-17T09:31:56.197Z,89.29
2018-12-17T09:35:26.188Z,89.36
2018-12-17T09:38:56.219Z,89.43
2018-12-17T09:42:26.221Z,89.37
2018-12-17T09:45:56.353Z,89.31
2018-12-17T09:49:26.454Z,89.43
2018-12-17T09:52:56.586Z,89.4
2018-12-17T09:56:26.687Z,89.31
2018-12-17T09:59:56.659Z,89.37
2018-12-17T10:00:25.411Z,89.38
2018-12-17T10:03:55.751Z,89.26
2018-12-17T10:07:30.458Z,89.27
2018-12-17T10:11:00.613Z,89.31
2018-12-17T10:14:30.756Z,89.22
2018-12-17T10:18:00.790Z,89.22
2018-12-17T10:21:30.779Z,89.12
2018-12-17T10:25:00.781Z,89.12
2018-12-17T10:28:30.828Z,89.02
2018-12-17T10:32:00.864Z,89.03
2018-12-17T10:35:31.016Z,89.05
2018-12-17T10:39:01.101Z,89.05
2018-12-17T10:42:31.239Z,89.02
2018-12-17T10:46:01.290Z,88.94
2018-12-17T10:49:31.342Z,88.98
2018-12-17T10:53:01.314Z,88.97
2018-12-17T10:56:31.385Z,88.89
2018-12-17T11:00:01.517Z,88.88
2018-12-17T11:04:10.728Z,88.88
2018-12-17T11:07:40.840Z,88.94
2018-12-17T11:11:10.972Z,89.01
2018-12-17T11:14:41.194Z,88.98
2018-12-17T11:18:11.355Z,88.92
2018-12-17T11:21:41.367Z,88.93
2018-12-17T11:25:11.378Z,88.84
2018-12-17T11:28:41.391Z,88.83
2018-12-17T11:32:11.792Z,88.83
2018-12-17T11:35:41.873Z,88.78
2018-12-17T11:39:11.854Z,88.81
2018-12-17T11:42:41.967Z,88.81
2018-12-17T11:46:12.118Z,88.81
2018-12-17T11:49:42.115Z,88.79
2018-12-17T11:53:12.238Z,88.88
2018-12-17T11:57:29.293Z,88.87
2018-12-17T12:00:22.314Z,88.78
2018-12-17T12:03:52.296Z,88.77
2018-12-17T12:07:22.318Z,88.73
2018-12-17T12:10:52.379Z,88.74
2018-12-17T12:14:22.413Z,88.72
2018-12-17T12:17:52.662Z,88.71
2018-12-17T12:21:22.754Z,88.71
2018-12-17T12:24:52.906Z,88.69
2018-12-17T12:28:22.899Z,88.67
2018-12-17T12:31:52.952Z,88.66
2018-12-17T12:35:23.121Z,88.61
2018-12-17T12:38:53.202Z,88.65
2018-12-17T12:42:23.314Z,88.64
2018-12-17T12:45:53.396Z,88.64
2018-12-17T12:49:23.497Z,88.63
2018-12-17T12:52:53.558Z,88.62
2018-12-17T12:56:23.650Z,88.59
2018-12-17T12:59:53.732Z,88.62
2018-12-17T13:03:23.803Z,88.64
2018-12-17T13:06:53.805Z,88.61
2018-12-17T13:10:23.877Z,88.61
2018-12-17T13:13:54.058Z,88.63
2018-12-17T13:17:31.362Z,88.62
2018-12-17T13:21:01.502Z,88.62
2018-12-17T13:24:31.614Z,88.59
2018-12-17T13:28:01.525Z,88.57
2018-12-17T13:31:31.586Z,88.55
2018-12-17T13:35:01.650Z,88.53
2018-12-17T13:38:31.768Z,88.56
2018-12-17T13:42:01.790Z,88.48
2018-12-17T13:45:31.854Z,88.49
2018-12-17T13:49:01.886Z,88.51
2018-12-17T13:52:47.787Z,88.51
2018-12-17T13:56:17.789Z,88.51
2018-12-17T13:59:48.001Z,88.49
2018-12-17T14:00:21.851Z,88.49
2018-12-17T14:03:51.863Z,88.48
2018-12-17T14:07:21.904Z,88.45
2018-12-17T14:10:54.306Z,88.47
2018-12-17T14:14:24.408Z,88.43
2018-12-17T14:17:56.291Z,88.39
2018-12-17T14:22:31.592Z,88.38
2018-12-17T14:26:01.665Z,88.36
2018-12-17T14:29:31.745Z,88.29
2018-12-17T14:33:01.818Z,88.3
2018-12-17T14:36:31.919Z,88.27
2018-12-17T14:40:03.760Z,88.24
2018-12-17T14:43:33.781Z,88.26
2018-12-17T14:47:04.014Z,88.24
2018-12-17T14:50:34.235Z,88.25
2018-12-17T14:54:04.430Z,88.22
2018-12-17T14:57:34.561Z,88.21
2018-12-17T15:01:04.530Z,88.2
2018-12-17T15:04:34.518Z,88.19
2018-12-17T15:08:04.534Z,88.19
2018-12-17T15:11:34.695Z,88.17
2018-12-17T15:15:06.577Z,88.2
2018-12-17T15:18:36.517Z,88.22
2018-12-17T15:22:06.591Z,88.18
2018-12-17T15:25:36.862Z,88.19
2018-12-17T15:29:06.944Z,88.12
2018-12-17T15:32:36.985Z,88.16
2018-12-17T15:36:07.087Z,88.12
2018-12-17T15:39:37.249Z,88.09
2018-12-17T15:43:07.260Z,88.1
2018-12-17T15:46:37.287Z,88.08
2018-12-17T15:50:07.434Z,88.07
2018-12-17T15:53:37.525Z,88.03
2018-12-17T15:57:07.717Z,88.05
2018-12-17T16:00:21.058Z,88.06
2018-12-17T16:03:50.990Z,88.04
2018-12-17T16:07:21.142Z,88.02
2018-12-17T16:10:51.133Z,88
2018-12-17T16:14:21.315Z,87.96
2018-12-17T16:17:51.406Z,87.94
2018-12-17T16:21:21.469Z,87.99
2018-12-17T16:24:51.449Z,88
2018-12-17T16:28:21.512Z,88.02
2018-12-17T16:31:57.321Z,88
2018-12-17T16:35:27.815Z,87.96
2018-12-17T16:38:57.897Z,88
2018-12-17T16:42:27.978Z,88.02
2018-12-17T16:45:58.008Z,87.98
2018-12-17T16:49:28.091Z,87.96
2018-12-17T16:52:58.030Z,87.95
2018-12-17T16:56:28.076Z,87.91
2018-12-17T16:59:58.187Z,87.89
2018-12-17T17:03:28.435Z,87.85
2018-12-17T17:06:58.339Z,87.84
2018-12-17T17:10:28.662Z,87.84
2018-12-17T17:13:58.743Z,87.85
2018-12-17T17:17:28.875Z,87.8
2018-12-17T17:20:58.967Z,87.79
2018-12-17T17:24:29.099Z,87.77
2018-12-17T17:27:59.151Z,87.78
2018-12-17T17:31:29.371Z,87.76
2018-12-17T17:34:59.343Z,87.78
2018-12-17T17:38:29.455Z,87.78
2018-12-17T17:41:59.383Z,87.76
2018-12-17T17:45:29.379Z,87.77
2018-12-17T17:48:59.350Z,87.79
2018-12-17T17:52:29.312Z,87.8
2018-12-17T17:55:59.564Z,87.82
2018-12-17T17:59:29.625Z,87.78
2018-12-17T18:00:21.095Z,87.77
2018-12-17T18:03:51.107Z,87.77
2018-12-17T18:07:21.099Z,87.72
2018-12-17T18:10:51.072Z,87.75
2018-12-17T18:14:21.212Z,87.76
2018-12-17T18:17:51.234Z,87.77
2018-12-17T18:21:21.315Z,87.75
2018-12-17T18:24:51.357Z,87.72
2018-12-17T18:28:21.449Z,87.7
2018-12-17T18:31:51.678Z,87.66
2018-12-17T18:35:21.822Z,87.66
2018-12-17T18:38:51.994Z,87.61
2018-12-17T18:42:22.146Z,87.61
2018-12-17T18:45:52.207Z,87.63
2018-12-17T18:49:22.249Z,87.63
2018-12-17T18:52:52.330Z,87.62
2018-12-17T18:56:22.542Z,87.6
2018-12-17T18:59:52.494Z,87.62
2018-12-17T19:03:22.700Z,87.63
2018-12-17T19:06:52.607Z,87.62
2018-12-17T19:10:22.659Z,87.6
2018-12-17T19:13:52.690Z,87.6
2018-12-17T19:17:22.772Z,87.54
2018-12-17T19:20:52.794Z,87.56
2018-12-17T19:24:22.865Z,87.47
2018-12-17T19:27:52.927Z,87.49
2018-12-17T19:31:23.028Z,87.51
2018-12-17T19:34:53.140Z,87.46
2018-12-17T19:38:23.142Z,87.46
2018-12-17T19:41:53.137Z,87.44
2018-12-17T19:45:23.178Z,87.42
2018-12-17T19:48:53.277Z,87.41
2018-12-17T19:52:23.236Z,87.39
2018-12-17T19:55:53.290Z,87.37
2018-12-17T19:59:23.392Z,87.38
2018-12-17T20:00:21.273Z,87.37
2018-12-17T20:03:51.274Z,87.35
2018-12-17T20:07:21.345Z,87.37
2018-12-17T20:10:51.529Z,87.35
2018-12-17T20:14:21.659Z,87.34
2018-12-17T20:17:51.741Z,87.33
2018-12-17T20:21:21.808Z,87.3
2018-12-17T20:24:51.884Z,87.33
2018-12-17T20:28:21.928Z,87.29
2018-12-17T20:31:51.997Z,87.28
2018-12-17T20:35:22.258Z,87.32
2018-12-17T20:38:52.271Z,87.35
2018-12-17T20:42:22.282Z,87.32
2018-12-17T20:45:52.361Z,87.26
2018-12-17T20:49:22.476Z,87.28
2018-12-17T20:52:52.617Z,87.23
2018-12-17T20:56:22.920Z,87.27
2018-12-17T20:59:52.891Z,87.24
2018-12-17T21:03:22.912Z,87.23
2018-12-17T21:06:52.995Z,87.21
2018-12-17T21:10:23.065Z,87.2
2018-12-17T21:13:53.029Z,87.2
2018-12-17T21:17:23.068Z,87.21
2018-12-17T21:20:53.160Z,87.23
2018-12-17T21:24:23.274Z,87.22
2018-12-17T21:27:53.268Z,87.19
2018-12-17T21:31:23.274Z,87.19
2018-12-17T21:34:53.436Z,87.2
2018-12-17T21:38:23.812Z,87.21
2018-12-17T21:41:53.828Z,87.23
2018-12-17T21:45:23.790Z,87.26
2018-12-17T21:48:53.812Z,87.3
2018-12-17T21:52:25.498Z,87.3
2018-12-17T21:55:55.635Z,87.25
2018-12-17T21:59:25.633Z,87.29
2018-12-17T22:00:21.726Z,87.3
2018-12-17T22:03:51.838Z,87.31
2018-12-17T22:07:21.951Z,87.34
2018-12-17T22:10:51.971Z,87.35
2018-12-17T22:14:22.015Z,87.39
2018-12-17T22:17:52.048Z,87.39
2018-12-17T22:21:22.096Z,87.38
2018-12-17T22:24:52.062Z,87.43
2018-12-17T22:28:22.099Z,87.45
2018-12-17T22:31:52.233Z,87.45
2018-12-17T22:35:22.320Z,87.44
2018-12-17T22:38:52.383Z,87.45
2018-12-17T22:42:22.475Z,87.44
2018-12-17T22:45:52.517Z,87.43
2018-12-17T22:49:22.637Z,87.44
2018-12-17T22:52:52.690Z,87.46
2018-12-17T22:56:22.741Z,87.42
2018-12-17T22:59:52.791Z,87.44
2018-12-17T23:03:26.344Z,87.46
2018-12-17T23:06:56.615Z,87.41
2018-12-17T23:19:46.850Z,87.48
2018-12-17T23:23:17.182Z,87.48
2018-12-17T23:26:47.234Z,87.49
2018-12-17T23:30:20.027Z,87.51
2018-12-17T23:33:50.107Z,87.51
2018-12-17T23:37:20.148Z,87.49
2018-12-17T23:40:50.630Z,87.48
2018-12-17T23:44:20.631Z,87.51
2018-12-17T23:47:50.652Z,87.51
2018-12-17T23:51:20.726Z,87.51
2018-12-17T23:54:50.817Z,87.54
2018-12-17T23:58:21.059Z,87.54
